sensor_id;sensor_type;location;lat;lon;timestamp;pressure;altitude;pressure_sealevel;temperature
78961;BMP280;68362;45.970;12.646;2024-01-30T00:00:20;103212.34;;;1.15
78961;BMP280;68362;45.970;12.646;2024-01-30T00:01:42;103213.88;;;1.03
78961;BMP280;68362;45.970;12.646;2024-01-30T00:02:45;103218.41;;;1.00
78961;BMP280;68362;45.970;12.646;2024-01-30T00:03:48;103206.34;;;1.15
78961;BMP280;68362;45.970;12.646;2024-01-30T00:04:50;103213.53;;;1.25
78961;BMP280;68362;45.970;12.646;2024-01-30T00:05:52;103211.13;;;1.22
78961;BMP280;68362;45.970;12.646;2024-01-30T00:06:58;103219.06;;;0.72
78961;BMP280;68362;45.970;12.646;2024-01-30T00:08:00;103210.91;;;0.79
78961;BMP280;68362;45.970;12.646;2024-01-30T00:09:02;103214.66;;;1.05
78961;BMP280;68362;45.970;12.646;2024-01-30T00:10:05;103207.72;;;1.06
78961;BMP280;68362;45.970;12.646;2024-01-30T00:11:08;103217.22;;;0.90
78961;BMP280;68362;45.970;12.646;2024-01-30T00:12:10;103211.47;;;0.53
78961;BMP280;68362;45.970;12.646;2024-01-30T00:13:12;103215.28;;;0.30
78961;BMP280;68362;45.970;12.646;2024-01-30T00:14:15;103212.34;;;0.20
78961;BMP280;68362;45.970;12.646;2024-01-30T00:15:17;103206.63;;;0.47
78961;BMP280;68362;45.970;12.646;2024-01-30T00:16:23;103215.66;;;0.55
78961;BMP280;68362;45.970;12.646;2024-01-30T00:17:26;103210.19;;;0.44
78961;BMP280;68362;45.970;12.646;2024-01-30T00:18:28;103209.22;;;0.47
78961;BMP280;68362;45.970;12.646;2024-01-30T00:19:31;103207.56;;;0.77
78961;BMP280;68362;45.970;12.646;2024-01-30T00:20:33;103208.88;;;1.00
78961;BMP280;68362;45.970;12.646;2024-01-30T00:21:36;103210.38;;;0.89
78961;BMP280;68362;45.970;12.646;2024-01-30T00:22:38;103209.88;;;0.98
78961;BMP280;68362;45.970;12.646;2024-01-30T00:23:41;103207.53;;;1.09
78961;BMP280;68362;45.970;12.646;2024-01-30T00:24:43;103209.00;;;1.13
78961;BMP280;68362;45.970;12.646;2024-01-30T00:25:45;103215.09;;;1.28
78961;BMP280;68362;45.970;12.646;2024-01-30T00:26:47;103208.16;;;0.82
78961;BMP280;68362;45.970;12.646;2024-01-30T00:27:49;103207.22;;;0.83
78961;BMP280;68362;45.970;12.646;2024-01-30T00:28:51;103207.28;;;0.98
78961;BMP280;68362;45.970;12.646;2024-01-30T00:29:54;103205.31;;;1.03
78961;BMP280;68362;45.970;12.646;2024-01-30T00:30:56;103206.97;;;1.04
78961;BMP280;68362;45.970;12.646;2024-01-30T00:31:58;103213.88;;;1.19
78961;BMP280;68362;45.970;12.646;2024-01-30T00:33:00;103205.69;;;1.27
78961;BMP280;68362;45.970;12.646;2024-01-30T00:34:03;103204.44;;;1.18
78961;BMP280;68362;45.970;12.646;2024-01-30T00:35:05;103211.22;;;1.05
78961;BMP280;68362;45.970;12.646;2024-01-30T00:36:08;103207.88;;;1.03
78961;BMP280;68362;45.970;12.646;2024-01-30T00:37:11;103206.97;;;1.04
78961;BMP280;68362;45.970;12.646;2024-01-30T00:38:13;103206.41;;;0.99
78961;BMP280;68362;45.970;12.646;2024-01-30T00:39:15;103207.72;;;1.06
78961;BMP280;68362;45.970;12.646;2024-01-30T00:40:18;103211.81;;;0.63
78961;BMP280;68362;45.970;12.646;2024-01-30T00:41:20;103204.78;;;-0.35
78961;BMP280;68362;45.970;12.646;2024-01-30T00:42:22;103203.13;;;-0.36
78961;BMP280;68362;45.970;12.646;2024-01-30T00:43:25;103205.97;;;-0.07
78961;BMP280;68362;45.970;12.646;2024-01-30T00:44:27;103202.06;;;-0.15
78961;BMP280;68362;45.970;12.646;2024-01-30T00:45:29;103198.22;;;0.10
78961;BMP280;68362;45.970;12.646;2024-01-30T00:46:32;103198.50;;;0.21
78961;BMP280;68362;45.970;12.646;2024-01-30T00:47:34;103199.25;;;-0.10
78961;BMP280;68362;45.970;12.646;2024-01-30T00:48:36;103202.16;;;0.17
78961;BMP280;68362;45.970;12.646;2024-01-30T00:49:38;103201.53;;;0.29
78961;BMP280;68362;45.970;12.646;2024-01-30T00:50:41;103201.72;;;-0.24
78961;BMP280;68362;45.970;12.646;2024-01-30T00:51:43;103207.06;;;0.22
78961;BMP280;68362;45.970;12.646;2024-01-30T00:52:45;103210.09;;;0.46
78961;BMP280;68362;45.970;12.646;2024-01-30T00:53:47;103201.84;;;0.23
78961;BMP280;68362;45.970;12.646;2024-01-30T00:54:50;103204.88;;;0.47
78961;BMP280;68362;45.970;12.646;2024-01-30T00:55:52;103207.97;;;0.54
78961;BMP280;68362;45.970;12.646;2024-01-30T00:56:54;103208.81;;;0.21
78961;BMP280;68362;45.970;12.646;2024-01-30T00:57:56;103203.66;;;0.05
78961;BMP280;68362;45.970;12.646;2024-01-30T00:58:58;103202.34;;;0.30
78961;BMP280;68362;45.970;12.646;2024-01-30T01:00:01;103203.94;;;0.32
78961;BMP280;68362;45.970;12.646;2024-01-30T01:01:03;103194.81;;;0.09
78961;BMP280;68362;45.970;12.646;2024-01-30T01:02:05;103195.50;;;0.13
78961;BMP280;68362;45.970;12.646;2024-01-30T01:03:08;103206.69;;;0.29
78961;BMP280;68362;45.970;12.646;2024-01-30T01:04:10;103203.56;;;0.56
78961;BMP280;68362;45.970;12.646;2024-01-30T01:05:13;103203.56;;;0.56
78961;BMP280;68362;45.970;12.646;2024-01-30T01:06:15;103200.59;;;0.30
78961;BMP280;68362;45.970;12.646;2024-01-30T01:07:18;103200.38;;;0.35
78961;BMP280;68362;45.970;12.646;2024-01-30T01:08:20;103200.22;;;0.54
78961;BMP280;68362;45.970;12.646;2024-01-30T01:09:22;103199.38;;;0.69
78961;BMP280;68362;45.970;12.646;2024-01-30T01:10:24;103193.47;;;0.67
78961;BMP280;68362;45.970;12.646;2024-01-30T01:11:26;103200.38;;;0.51
78961;BMP280;68362;45.970;12.646;2024-01-30T01:12:28;103203.72;;;0.69
78961;BMP280;68362;45.970;12.646;2024-01-30T01:13:30;103200.91;;;0.73
78961;BMP280;68362;45.970;12.646;2024-01-30T01:14:32;103202.97;;;0.35
78961;BMP280;68362;45.970;12.646;2024-01-30T01:15:35;103199.94;;;0.27
78961;BMP280;68362;45.970;12.646;2024-01-30T01:16:37;103198.56;;;0.53
78961;BMP280;68362;45.970;12.646;2024-01-30T01:17:40;103198.41;;;0.56
78961;BMP280;68362;45.970;12.646;2024-01-30T01:18:42;103194.31;;;0.52
78961;BMP280;68362;45.970;12.646;2024-01-30T01:19:44;103199.25;;;0.72
78961;BMP280;68362;45.970;12.646;2024-01-30T01:20:47;103200.72;;;0.76
78961;BMP280;68362;45.970;12.646;2024-01-30T01:21:49;103193.66;;;0.80
78961;BMP280;68362;45.970;12.646;2024-01-30T01:22:51;103192.72;;;0.97
78961;BMP280;68362;45.970;12.646;2024-01-30T01:23:54;103194.63;;;0.93
78961;BMP280;68362;45.970;12.646;2024-01-30T01:24:58;103188.78;;;0.90
78961;BMP280;68362;45.970;12.646;2024-01-30T01:26:00;103189.38;;;0.95
78961;BMP280;68362;45.970;12.646;2024-01-30T01:27:03;103187.78;;;0.92
78961;BMP280;68362;45.970;12.646;2024-01-30T01:28:05;103191.28;;;0.91
78961;BMP280;68362;45.970;12.646;2024-01-30T01:29:07;103192.22;;;0.90
78961;BMP280;68362;45.970;12.646;2024-01-30T01:30:13;103184.19;;;0.95
78961;BMP280;68362;45.970;12.646;2024-01-30T01:31:20;103189.47;;;0.93
78961;BMP280;68362;45.970;12.646;2024-01-30T01:32:27;103186.03;;;0.93
78961;BMP280;68362;45.970;12.646;2024-01-30T01:33:29;103183.41;;;0.78
78961;BMP280;68362;45.970;12.646;2024-01-30T01:34:31;103188.75;;;0.75
78961;BMP280;68362;45.970;12.646;2024-01-30T01:35:33;103185.81;;;0.81
78961;BMP280;68362;45.970;12.646;2024-01-30T01:36:36;103184.88;;;0.82
78961;BMP280;68362;45.970;12.646;2024-01-30T01:37:38;103179.09;;;0.46
78961;BMP280;68362;45.970;12.646;2024-01-30T01:38:40;103177.06;;;0.52
78961;BMP280;68362;45.970;12.646;2024-01-30T01:39:42;103185.47;;;0.56
78961;BMP280;68362;45.970;12.646;2024-01-30T01:40:45;103177.28;;;0.32
78961;BMP280;68362;45.970;12.646;2024-01-30T01:41:47;103177.38;;;0.46
78961;BMP280;68362;45.970;12.646;2024-01-30T01:42:54;103177.13;;;0.35
78961;BMP280;68362;45.970;12.646;2024-01-30T01:43:56;103170.00;;;0.07
78961;BMP280;68362;45.970;12.646;2024-01-30T01:44:59;103169.59;;;-0.19
78961;BMP280;68362;45.970;12.646;2024-01-30T01:46:01;103168.38;;;-0.29
78961;BMP280;68362;45.970;12.646;2024-01-30T01:47:04;103163.97;;;-0.27
78961;BMP280;68362;45.970;12.646;2024-01-30T01:48:06;103165.81;;;-0.46
78961;BMP280;68362;45.970;12.646;2024-01-30T01:49:10;103167.00;;;-0.36
78961;BMP280;68362;45.970;12.646;2024-01-30T01:50:14;103159.88;;;-0.31
78961;BMP280;68362;45.970;12.646;2024-01-30T01:51:17;103163.06;;;-0.26
78961;BMP280;68362;45.970;12.646;2024-01-30T01:52:19;103158.94;;;-0.13
78961;BMP280;68362;45.970;12.646;2024-01-30T01:53:22;103159.97;;;0.01
78961;BMP280;68362;45.970;12.646;2024-01-30T01:54:25;103162.19;;;0.08
78961;BMP280;68362;45.970;12.646;2024-01-30T01:55:29;103158.72;;;0.25
78961;BMP280;68362;45.970;12.646;2024-01-30T01:56:33;103163.72;;;0.28
78961;BMP280;68362;45.970;12.646;2024-01-30T01:57:35;103155.97;;;0.28
78961;BMP280;68362;45.970;12.646;2024-01-30T01:58:38;103156.38;;;0.52
78961;BMP280;68362;45.970;12.646;2024-01-30T01:59:40;103156.03;;;0.43
78961;BMP280;68362;45.970;12.646;2024-01-30T02:00:42;103158.31;;;0.15
78961;BMP280;68362;45.970;12.646;2024-01-30T02:01:45;103161.19;;;0.11
78961;BMP280;68362;45.970;12.646;2024-01-30T02:02:51;103158.28;;;0.33
78961;BMP280;68362;45.970;12.646;2024-01-30T02:03:56;103150.69;;;0.46
78961;BMP280;68362;45.970;12.646;2024-01-30T02:04:58;103158.78;;;0.40
78961;BMP280;68362;45.970;12.646;2024-01-30T02:06:02;103159.22;;;0.32
78961;BMP280;68362;45.970;12.646;2024-01-30T02:07:04;103158.72;;;0.25
78961;BMP280;68362;45.970;12.646;2024-01-30T02:08:08;103156.78;;;0.45
78961;BMP280;68362;45.970;12.646;2024-01-30T02:09:10;103152.22;;;0.50
78961;BMP280;68362;45.970;12.646;2024-01-30T02:10:13;103155.66;;;0.34
78961;BMP280;68362;45.970;12.646;2024-01-30T02:11:15;103149.03;;;0.29
78961;BMP280;68362;45.970;12.646;2024-01-30T02:12:18;103150.53;;;0.17
78961;BMP280;68362;45.970;12.646;2024-01-30T02:13:21;103151.41;;;0.16
78961;BMP280;68362;45.970;12.646;2024-01-30T02:14:23;103146.63;;;-0.07
78961;BMP280;68362;45.970;12.646;2024-01-30T02:15:28;103151.59;;;-0.20
78961;BMP280;68362;45.970;12.646;2024-01-30T02:16:31;103151.69;;;-0.39
78961;BMP280;68362;45.970;12.646;2024-01-30T02:17:34;103148.00;;;-0.51
78961;BMP280;68362;45.970;12.646;2024-01-30T02:18:36;103152.31;;;-0.69
78961;BMP280;68362;45.970;12.646;2024-01-30T02:19:44;103142.09;;;-1.07
78961;BMP280;68362;45.970;12.646;2024-01-30T02:20:46;103150.97;;;-1.14
78961;BMP280;68362;45.970;12.646;2024-01-30T02:21:49;103144.84;;;-0.75
78961;BMP280;68362;45.970;12.646;2024-01-30T02:22:55;103151.22;;;-0.65
78961;BMP280;68362;45.970;12.646;2024-01-30T02:23:58;103147.88;;;-0.67
78961;BMP280;68362;45.970;12.646;2024-01-30T02:25:01;103136.81;;;-0.51
78961;BMP280;68362;45.970;12.646;2024-01-30T02:26:04;103144.00;;;-0.23
78961;BMP280;68362;45.970;12.646;2024-01-30T02:27:07;103140.47;;;-0.05
78961;BMP280;68362;45.970;12.646;2024-01-30T02:28:09;103143.16;;;-0.06
78961;BMP280;68362;45.970;12.646;2024-01-30T02:29:11;103138.94;;;0.08
78961;BMP280;68362;45.970;12.646;2024-01-30T02:30:13;103138.69;;;0.13
78961;BMP280;68362;45.970;12.646;2024-01-30T02:31:16;103136.28;;;-0.07
78961;BMP280;68362;45.970;12.646;2024-01-30T02:32:18;103138.13;;;-0.10
78961;BMP280;68362;45.970;12.646;2024-01-30T02:33:20;103139.63;;;-0.05
78961;BMP280;68362;45.970;12.646;2024-01-30T02:34:24;103138.13;;;-0.10
78961;BMP280;68362;45.970;12.646;2024-01-30T02:35:26;103133.06;;;-0.28
78961;BMP280;68362;45.970;12.646;2024-01-30T02:36:28;103136.22;;;-0.39
78961;BMP280;68362;45.970;12.646;2024-01-30T02:37:30;103135.44;;;-0.41
78961;BMP280;68362;45.970;12.646;2024-01-30T02:38:32;103132.88;;;-0.59
78961;BMP280;68362;45.970;12.646;2024-01-30T02:39:35;103132.28;;;-0.46
78961;BMP280;68362;45.970;12.646;2024-01-30T02:40:37;103132.41;;;-0.15
78961;BMP280;68362;45.970;12.646;2024-01-30T02:41:39;103129.34;;;0.10
78961;BMP280;68362;45.970;12.646;2024-01-30T02:42:41;103131.34;;;0.21
78961;BMP280;68362;45.970;12.646;2024-01-30T02:43:44;103133.00;;;0.22
78961;BMP280;68362;45.970;12.646;2024-01-30T02:44:46;103130.19;;;0.27
78961;BMP280;68362;45.970;12.646;2024-01-30T02:45:48;103129.97;;;0.31
78961;BMP280;68362;45.970;12.646;2024-01-30T02:46:50;103133.69;;;0.42
78961;BMP280;68362;45.970;12.646;2024-01-30T02:47:53;103132.56;;;0.31
78961;BMP280;68362;45.970;12.646;2024-01-30T02:48:55;103129.72;;;0.36
78961;BMP280;68362;45.970;12.646;2024-01-30T02:49:57;103126.78;;;0.26
78961;BMP280;68362;45.970;12.646;2024-01-30T02:51:00;103126.69;;;0.28
78961;BMP280;68362;45.970;12.646;2024-01-30T02:52:02;103131.88;;;0.44
78961;BMP280;68362;45.970;12.646;2024-01-30T02:53:05;103123.47;;;0.56
78961;BMP280;68362;45.970;12.646;2024-01-30T02:54:07;103134.91;;;0.52
78961;BMP280;68362;45.970;12.646;2024-01-30T02:55:10;103129.91;;;0.49
78961;BMP280;68362;45.970;12.646;2024-01-30T02:56:12;103130.47;;;0.38
78961;BMP280;68362;45.970;12.646;2024-01-30T02:57:15;103125.88;;;0.27
78961;BMP280;68362;45.970;12.646;2024-01-30T02:58:17;103124.22;;;0.26
78961;BMP280;68362;45.970;12.646;2024-01-30T02:59:19;103127.41;;;0.31
78961;BMP280;68362;45.970;12.646;2024-01-30T03:00:22;103119.03;;;0.42
78961;BMP280;68362;45.970;12.646;2024-01-30T03:01:24;103126.78;;;0.10
78961;BMP280;68362;45.970;12.646;2024-01-30T03:02:26;103124.19;;;0.10
78961;BMP280;68362;45.970;12.646;2024-01-30T03:03:28;103117.16;;;0.14
78961;BMP280;68362;45.970;12.646;2024-01-30T03:04:31;103124.19;;;0.10
78961;BMP280;68362;45.970;12.646;2024-01-30T03:05:33;103118.91;;;0.13
78961;BMP280;68362;45.970;12.646;2024-01-30T03:06:35;103117.84;;;0.00
78961;BMP280;68362;45.970;12.646;2024-01-30T03:07:37;103113.00;;;-0.06
78961;BMP280;68362;45.970;12.646;2024-01-30T03:08:40;103119.00;;;-0.05
78961;BMP280;68362;45.970;12.646;2024-01-30T03:09:42;103116.25;;;-0.02
78961;BMP280;68362;45.970;12.646;2024-01-30T03:10:45;103119.03;;;-0.40
78961;BMP280;68362;45.970;12.646;2024-01-30T03:11:48;103120.44;;;-0.33
78961;BMP280;68362;45.970;12.646;2024-01-30T03:12:51;103118.75;;;-0.34
78961;BMP280;68362;45.970;12.646;2024-01-30T03:13:53;103120.50;;;-0.35
78961;BMP280;68362;45.970;12.646;2024-01-30T03:14:55;103122.84;;;-0.30
78961;BMP280;68362;45.970;12.646;2024-01-30T03:15:57;103117.84;;;-0.16
78961;BMP280;68362;45.970;12.646;2024-01-30T03:17:00;103114.41;;;-0.16
78961;BMP280;68362;45.970;12.646;2024-01-30T03:18:02;103114.72;;;-0.22
78961;BMP280;68362;45.970;12.646;2024-01-30T03:19:07;103119.75;;;-0.03
78961;BMP280;68362;45.970;12.646;2024-01-30T03:20:11;103111.69;;;0.19
78961;BMP280;68362;45.970;12.646;2024-01-30T03:21:13;103108.22;;;0.20
78961;BMP280;68362;45.970;12.646;2024-01-30T03:22:16;103116.84;;;0.03
78961;BMP280;68362;45.970;12.646;2024-01-30T03:23:19;103116.47;;;-0.23
78961;BMP280;68362;45.970;12.646;2024-01-30T03:24:21;103113.41;;;-0.47
78961;BMP280;68362;45.970;12.646;2024-01-30T03:25:23;103111.66;;;-0.46
78961;BMP280;68362;45.970;12.646;2024-01-30T03:26:26;103109.19;;;-0.32
78961;BMP280;68362;45.970;12.646;2024-01-30T03:27:28;103114.16;;;-0.12
78961;BMP280;68362;45.970;12.646;2024-01-30T03:28:30;103108.66;;;-0.05
78961;BMP280;68362;45.970;12.646;2024-01-30T03:29:33;103110.31;;;-0.04
78961;BMP280;68362;45.970;12.646;2024-01-30T03:30:35;103107.13;;;0.08
78961;BMP280;68362;45.970;12.646;2024-01-30T03:31:37;103114.06;;;-0.10
78961;BMP280;68362;45.970;12.646;2024-01-30T03:32:39;103118.50;;;0.04
78961;BMP280;68362;45.970;12.646;2024-01-30T03:33:42;103110.78;;;0.04
78961;BMP280;68362;45.970;12.646;2024-01-30T03:34:44;103113.91;;;-0.07
78961;BMP280;68362;45.970;12.646;2024-01-30T03:35:46;103111.47;;;-0.26
78961;BMP280;68362;45.970;12.646;2024-01-30T03:36:48;103113.19;;;-0.26
78961;BMP280;68362;45.970;12.646;2024-01-30T03:37:51;103110.72;;;0.05
78961;BMP280;68362;45.970;12.646;2024-01-30T03:38:53;103114.03;;;0.07
78961;BMP280;68362;45.970;12.646;2024-01-30T03:39:55;103109.44;;;-0.03
78961;BMP280;68362;45.970;12.646;2024-01-30T03:40:58;103114.50;;;-0.18
78961;BMP280;68362;45.970;12.646;2024-01-30T03:42:02;103115.91;;;-0.45
78961;BMP280;68362;45.970;12.646;2024-01-30T03:43:04;103113.09;;;-0.58
78961;BMP280;68362;45.970;12.646;2024-01-30T03:44:07;103109.97;;;-0.65
78961;BMP280;68362;45.970;12.646;2024-01-30T03:45:09;103119.53;;;-0.49
78961;BMP280;68362;45.970;12.646;2024-01-30T03:46:12;103112.56;;;-0.65
78961;BMP280;68362;45.970;12.646;2024-01-30T03:47:14;103109.75;;;-0.60
78961;BMP280;68362;45.970;12.646;2024-01-30T03:48:17;103110.75;;;-0.80
78961;BMP280;68362;45.970;12.646;2024-01-30T03:49:19;103119.97;;;-0.76
78961;BMP280;68362;45.970;12.646;2024-01-30T03:50:22;103122.09;;;-0.32
78961;BMP280;68362;45.970;12.646;2024-01-30T03:51:24;103114.44;;;-0.34
78961;BMP280;68362;45.970;12.646;2024-01-30T03:52:26;103122.53;;;-0.24
78961;BMP280;68362;45.970;12.646;2024-01-30T03:53:28;103111.56;;;-0.12
78961;BMP280;68362;45.970;12.646;2024-01-30T03:54:31;103110.41;;;-0.39
78961;BMP280;68362;45.970;12.646;2024-01-30T03:55:33;103109.50;;;-0.38
78961;BMP280;68362;45.970;12.646;2024-01-30T03:56:35;103116.56;;;-0.09
78961;BMP280;68362;45.970;12.646;2024-01-30T03:57:37;103107.16;;;-0.10
78961;BMP280;68362;45.970;12.646;2024-01-30T03:58:39;103108.66;;;-0.05
78961;BMP280;68362;45.970;12.646;2024-01-30T03:59:45;103108.03;;;0.07
78961;BMP280;68362;45.970;12.646;2024-01-30T04:00:47;103113.19;;;0.07
78961;BMP280;68362;45.970;12.646;2024-01-30T04:01:52;103112.16;;;-0.06
78961;BMP280;68362;45.970;12.646;2024-01-30T04:02:55;103114.59;;;-0.03
78961;BMP280;68362;45.970;12.646;2024-01-30T04:03:57;103113.72;;;0.13
78961;BMP280;68362;45.970;12.646;2024-01-30T04:04:59;103113.81;;;-0.05
78961;BMP280;68362;45.970;12.646;2024-01-30T04:06:01;103112.75;;;-0.01
78961;BMP280;68362;45.970;12.646;2024-01-30T04:07:04;103107.22;;;-0.11
78961;BMP280;68362;45.970;12.646;2024-01-30T04:08:06;103105.75;;;0.01
78961;BMP280;68362;45.970;12.646;2024-01-30T04:09:08;103103.47;;;0.12
78961;BMP280;68362;45.970;12.646;2024-01-30T04:10:10;103111.53;;;0.06
78961;BMP280;68362;45.970;12.646;2024-01-30T04:11:13;103107.34;;;0.19
78961;BMP280;68362;45.970;12.646;2024-01-30T04:12:15;103104.22;;;0.14
78961;BMP280;68362;45.970;12.646;2024-01-30T04:13:17;103105.88;;;0.15
78961;BMP280;68362;45.970;12.646;2024-01-30T04:14:19;103106.47;;;0.20
78961;BMP280;68362;45.970;12.646;2024-01-30T04:15:22;103102.03;;;0.06
78961;BMP280;68362;45.970;12.646;2024-01-30T04:16:24;103100.31;;;-0.11
78961;BMP280;68362;45.970;12.646;2024-01-30T04:17:26;103105.88;;;0.15
78961;BMP280;68362;45.970;12.646;2024-01-30T04:18:30;103100.06;;;0.11
78961;BMP280;68362;45.970;12.646;2024-01-30T04:19:32;103103.41;;;-0.20
78961;BMP280;68362;45.970;12.646;2024-01-30T04:20:34;103103.19;;;-0.15
78961;BMP280;68362;45.970;12.646;2024-01-30T04:21:36;103102.97;;;0.05
78961;BMP280;68362;45.970;12.646;2024-01-30T04:22:39;103108.78;;;0.09
78961;BMP280;68362;45.970;12.646;2024-01-30T04:23:41;103107.16;;;-0.10
78961;BMP280;68362;45.970;12.646;2024-01-30T04:24:44;103102.38;;;-0.33
78961;BMP280;68362;45.970;12.646;2024-01-30T04:25:46;103107.91;;;-0.41
78961;BMP280;68362;45.970;12.646;2024-01-30T04:26:48;103100.75;;;-0.18
78961;BMP280;68362;45.970;12.646;2024-01-30T04:27:50;103102.69;;;-0.06
78961;BMP280;68362;45.970;12.646;2024-01-30T04:28:52;103106.59;;;-0.15
78961;BMP280;68362;45.970;12.646;2024-01-30T04:29:55;103096.91;;;-0.11
78961;BMP280;68362;45.970;12.646;2024-01-30T04:30:57;103101.97;;;0.08
78961;BMP280;68362;45.970;12.646;2024-01-30T04:31:59;103101.91;;;-0.24
78961;BMP280;68362;45.970;12.646;2024-01-30T04:33:01;103100.66;;;-0.67
78961;BMP280;68362;45.970;12.646;2024-01-30T04:34:03;103101.47;;;-0.84
78961;BMP280;68362;45.970;12.646;2024-01-30T04:35:06;103099.97;;;-0.71
78961;BMP280;68362;45.970;12.646;2024-01-30T04:36:12;103104.97;;;-0.68
78961;BMP280;68362;45.970;12.646;2024-01-30T04:37:14;103104.56;;;-0.43
78961;BMP280;68362;45.970;12.646;2024-01-30T04:38:16;103107.81;;;-0.22
78961;BMP280;68362;45.970;12.646;2024-01-30T04:39:18;103100.47;;;-0.14
78961;BMP280;68362;45.970;12.646;2024-01-30T04:40:21;103111.25;;;-0.39
78961;BMP280;68362;45.970;12.646;2024-01-30T04:41:24;103103.69;;;-0.59
78961;BMP280;68362;45.970;12.646;2024-01-30T04:42:26;103101.16;;;-0.61
78961;BMP280;68362;45.970;12.646;2024-01-30T04:43:28;103106.53;;;-0.30
78961;BMP280;68362;45.970;12.646;2024-01-30T04:44:30;103104.63;;;-0.27
78961;BMP280;68362;45.970;12.646;2024-01-30T04:45:32;103100.81;;;-0.20
78961;BMP280;68362;45.970;12.646;2024-01-30T04:46:34;103109.63;;;-0.24
78961;BMP280;68362;45.970;12.646;2024-01-30T04:47:36;103110.91;;;-0.48
78961;BMP280;68362;45.970;12.646;2024-01-30T04:48:39;103100.31;;;-0.44
78961;BMP280;68362;45.970;12.646;2024-01-30T04:49:42;103100.03;;;-0.55
78961;BMP280;68362;45.970;12.646;2024-01-30T04:50:44;103112.25;;;-0.59
78961;BMP280;68362;45.970;12.646;2024-01-30T04:51:46;103104.44;;;-0.74
78961;BMP280;68362;45.970;12.646;2024-01-30T04:52:49;103103.59;;;-0.58
78961;BMP280;68362;45.970;12.646;2024-01-30T04:53:51;103110.81;;;-0.47
78961;BMP280;68362;45.970;12.646;2024-01-30T04:54:53;103113.16;;;-0.77
78961;BMP280;68362;45.970;12.646;2024-01-30T04:55:55;103111.88;;;-0.68
78961;BMP280;68362;45.970;12.646;2024-01-30T04:56:57;103112.03;;;-0.54
78961;BMP280;68362;45.970;12.646;2024-01-30T04:58:00;103111.50;;;-0.61
78961;BMP280;68362;45.970;12.646;2024-01-30T04:59:02;103110.34;;;-0.90
78961;BMP280;68362;45.970;12.646;2024-01-30T05:00:05;103115.00;;;-0.62
78961;BMP280;68362;45.970;12.646;2024-01-30T05:01:08;103120.16;;;-0.62
78961;BMP280;68362;45.970;12.646;2024-01-30T05:02:10;103114.53;;;-0.87
78961;BMP280;68362;45.970;12.646;2024-01-30T05:03:12;103123.22;;;-1.07
78961;BMP280;68362;45.970;12.646;2024-01-30T05:04:15;103122.34;;;-0.89
78961;BMP280;68362;45.970;12.646;2024-01-30T05:05:18;103123.47;;;-0.94
78961;BMP280;68362;45.970;12.646;2024-01-30T05:06:25;103124.53;;;-0.64
78961;BMP280;68362;45.970;12.646;2024-01-30T05:07:27;103125.19;;;-0.43
78961;BMP280;68362;45.970;12.646;2024-01-30T05:08:29;103127.34;;;-0.34
78961;BMP280;68362;45.970;12.646;2024-01-30T05:09:32;103122.09;;;-0.32
78961;BMP280;68362;45.970;12.646;2024-01-30T05:10:34;103130.16;;;-0.56
78961;BMP280;68362;45.970;12.646;2024-01-30T05:11:37;103126.22;;;-0.80
78961;BMP280;68362;45.970;12.646;2024-01-30T05:12:40;103124.19;;;-1.10
78961;BMP280;68362;45.970;12.646;2024-01-30T05:13:43;103131.44;;;-1.18
78961;BMP280;68362;45.970;12.646;2024-01-30T05:14:45;103129.50;;;-1.13
78961;BMP280;68362;45.970;12.646;2024-01-30T05:15:47;103128.72;;;-1.15
78961;BMP280;68362;45.970;12.646;2024-01-30T05:16:49;103129.50;;;-0.78
78961;BMP280;68362;45.970;12.646;2024-01-30T05:17:52;103136.59;;;-0.64
78961;BMP280;68362;45.970;12.646;2024-01-30T05:18:54;103137.50;;;-0.83
78961;BMP280;68362;45.970;12.646;2024-01-30T05:19:56;103140.69;;;-0.95
78961;BMP280;68362;45.970;12.646;2024-01-30T05:20:58;103138.53;;;-1.04
78961;BMP280;68362;45.970;12.646;2024-01-30T05:22:02;103143.84;;;-1.07
78961;BMP280;68362;45.970;12.646;2024-01-30T05:23:04;103141.69;;;-0.80
78961;BMP280;68362;45.970;12.646;2024-01-30T05:24:06;103144.88;;;-0.58
78961;BMP280;68362;45.970;12.646;2024-01-30T05:25:08;103148.16;;;-0.54
78961;BMP280;68362;45.970;12.646;2024-01-30T05:26:11;103144.63;;;-0.36
78961;BMP280;68362;45.970;12.646;2024-01-30T05:27:13;103142.88;;;-0.35
78961;BMP280;68362;45.970;12.646;2024-01-30T05:28:15;103142.56;;;-0.29
78961;BMP280;68362;45.970;12.646;2024-01-30T05:29:18;103142.53;;;-0.45
78961;BMP280;68362;45.970;12.646;2024-01-30T05:30:20;103148.19;;;-0.38
78961;BMP280;68362;45.970;12.646;2024-01-30T05:31:22;103147.72;;;-0.29
78961;BMP280;68362;45.970;12.646;2024-01-30T05:32:24;103147.41;;;-0.40
78961;BMP280;68362;45.970;12.646;2024-01-30T05:33:26;103151.22;;;-0.30
78961;BMP280;68362;45.970;12.646;2024-01-30T05:34:29;103151.22;;;-0.30
78961;BMP280;68362;45.970;12.646;2024-01-30T05:35:31;103151.53;;;-0.36
78961;BMP280;68362;45.970;12.646;2024-01-30T05:36:33;103151.97;;;-0.28
78961;BMP280;68362;45.970;12.646;2024-01-30T05:37:35;103155.78;;;-0.35
78961;BMP280;68362;45.970;12.646;2024-01-30T05:38:38;103146.22;;;-0.33
78961;BMP280;68362;45.970;12.646;2024-01-30T05:39:40;103152.75;;;-0.26
78961;BMP280;68362;45.970;12.646;2024-01-30T05:40:42;103152.53;;;-0.21
78961;BMP280;68362;45.970;12.646;2024-01-30T05:41:44;103154.84;;;-0.34
78961;BMP280;68362;45.970;12.646;2024-01-30T05:42:47;103151.31;;;-0.49
78961;BMP280;68362;45.970;12.646;2024-01-30T05:43:49;103159.13;;;-0.33
78961;BMP280;68362;45.970;12.646;2024-01-30T05:44:51;103151.81;;;-0.25
78961;BMP280;68362;45.970;12.646;2024-01-30T05:45:53;103150.69;;;-0.37
78961;BMP280;68362;45.970;12.646;2024-01-30T05:46:56;103147.72;;;-0.29
78961;BMP280;68362;45.970;12.646;2024-01-30T05:47:58;103153.56;;;-0.43
78961;BMP280;68362;45.970;12.646;2024-01-30T05:49:00;103159.28;;;-0.53
78961;BMP280;68362;45.970;12.646;2024-01-30T05:50:02;103159.59;;;-0.60
78961;BMP280;68362;45.970;12.646;2024-01-30T05:51:07;103156.09;;;-0.59
78961;BMP280;68362;45.970;12.646;2024-01-30T05:52:10;103155.94;;;-0.56